sensor_id;sensor_type;location;lat;lon;timestamp;temperature;humidity
79016;DHT22;68420;44.714;37.756;2023-03-19T00:00:47;26.16;40.86
79016;DHT22;68420;44.714;37.756;2023-03-19T00:01:48;26.18;40.82
79016;DHT22;68420;44.714;37.756;2023-03-19T00:02:49;26.19;40.83
79016;DHT22;68420;44.714;37.756;2023-03-19T00:03:52;26.19;40.78
79016;DHT22;68420;44.714;37.756;2023-03-19T00:04:53;26.18;40.88
79016;DHT22;68420;44.714;37.756;2023-03-19T00:05:54;26.15;40.78
79016;DHT22;68420;44.714;37.756;2023-03-19T00:06:56;26.19;40.80
79016;DHT22;68420;44.714;37.756;2023-03-19T00:07:57;26.19;40.72
79016;DHT22;68420;44.714;37.756;2023-03-19T00:08:58;26.19;40.73
79016;DHT22;68420;44.714;37.756;2023-03-19T00:10:18;26.16;40.78
79016;DHT22;68420;44.714;37.756;2023-03-19T00:11:20;26.16;40.73
79016;DHT22;68420;44.714;37.756;2023-03-19T00:12:22;26.18;40.73
79016;DHT22;68420;44.714;37.756;2023-03-19T00:13:23;26.16;40.78
79016;DHT22;68420;44.714;37.756;2023-03-19T00:14:24;26.15;40.70
79016;DHT22;68420;44.714;37.756;2023-03-19T00:15:26;26.18;40.71
79016;DHT22;68420;44.714;37.756;2023-03-19T00:16:27;26.18;40.73
79016;DHT22;68420;44.714;37.756;2023-03-19T00:17:28;26.16;40.69
79016;DHT22;68420;44.714;37.756;2023-03-19T00:18:29;26.15;40.73
79016;DHT22;68420;44.714;37.756;2023-03-19T00:19:30;26.19;40.74
79016;DHT22;68420;44.714;37.756;2023-03-19T00:20:32;26.15;40.65
79016;DHT22;68420;44.714;37.756;2023-03-19T00:21:33;26.15;40.69
79016;DHT22;68420;44.714;37.756;2023-03-19T00:22:34;26.18;40.67
79016;DHT22;68420;44.714;37.756;2023-03-19T00:23:36;26.16;40.67
79016;DHT22;68420;44.714;37.756;2023-03-19T00:24:37;26.18;40.68
79016;DHT22;68420;44.714;37.756;2023-03-19T00:25:39;26.16;40.65
79016;DHT22;68420;44.714;37.756;2023-03-19T00:26:40;26.15;40.62
79016;DHT22;68420;44.714;37.756;2023-03-19T00:27:41;26.18;40.60
79016;DHT22;68420;44.714;37.756;2023-03-19T00:28:44;26.21;40.61
79016;DHT22;68420;44.714;37.756;2023-03-19T00:29:45;26.19;40.63
79016;DHT22;68420;44.714;37.756;2023-03-19T00:30:47;26.18;40.65
79016;DHT22;68420;44.714;37.756;2023-03-19T00:31:48;26.16;40.64
79016;DHT22;68420;44.714;37.756;2023-03-19T00:32:50;26.16;40.58
79016;DHT22;68420;44.714;37.756;2023-03-19T00:33:52;26.18;40.56
79016;DHT22;68420;44.714;37.756;2023-03-19T00:34:53;26.15;40.55
79016;DHT22;68420;44.714;37.756;2023-03-19T00:35:55;26.15;40.56
79016;DHT22;68420;44.714;37.756;2023-03-19T00:36:56;26.18;40.60
79016;DHT22;68420;44.714;37.756;2023-03-19T00:37:57;26.16;40.58
79016;DHT22;68420;44.714;37.756;2023-03-19T00:38:58;26.16;40.58
79016;DHT22;68420;44.714;37.756;2023-03-19T00:40:00;26.18;40.56
79016;DHT22;68420;44.714;37.756;2023-03-19T00:41:03;26.15;40.58
79016;DHT22;68420;44.714;37.756;2023-03-19T00:42:05;26.16;40.58
79016;DHT22;68420;44.714;37.756;2023-03-19T00:43:07;26.19;40.61
79016;DHT22;68420;44.714;37.756;2023-03-19T00:44:08;26.15;40.62
79016;DHT22;68420;44.714;37.756;2023-03-19T00:45:11;26.15;40.58
79016;DHT22;68420;44.714;37.756;2023-03-19T00:46:13;26.15;40.50
79016;DHT22;68420;44.714;37.756;2023-03-19T00:47:18;26.18;40.55
79016;DHT22;68420;44.714;37.756;2023-03-19T00:48:19;26.14;40.53
79016;DHT22;68420;44.714;37.756;2023-03-19T00:49:21;26.14;40.58
79016;DHT22;68420;44.714;37.756;2023-03-19T00:50:23;26.16;40.58
79016;DHT22;68420;44.714;37.756;2023-03-19T00:51:25;26.14;40.58
79016;DHT22;68420;44.714;37.756;2023-03-19T00:52:26;26.18;40.58
79016;DHT22;68420;44.714;37.756;2023-03-19T00:53:27;26.15;40.55
79016;DHT22;68420;44.714;37.756;2023-03-19T00:54:29;26.19;40.55
79016;DHT22;68420;44.714;37.756;2023-03-19T00:55:32;26.15;40.49
79016;DHT22;68420;44.714;37.756;2023-03-19T00:56:33;26.15;40.53
79016;DHT22;68420;44.714;37.756;2023-03-19T00:57:34;26.16;40.58
79016;DHT22;68420;44.714;37.756;2023-03-19T00:58:36;26.16;40.52
79016;DHT22;68420;44.714;37.756;2023-03-19T00:59:38;26.18;40.49
79016;DHT22;68420;44.714;37.756;2023-03-19T01:00:39;26.15;40.49
79016;DHT22;68420;44.714;37.756;2023-03-19T01:01:43;26.18;40.52
79016;DHT22;68420;44.714;37.756;2023-03-19T01:02:44;26.15;40.56
79016;DHT22;68420;44.714;37.756;2023-03-19T01:03:46;26.15;40.49
79016;DHT22;68420;44.714;37.756;2023-03-19T01:04:48;26.16;40.48
79016;DHT22;68420;44.714;37.756;2023-03-19T01:05:49;26.16;40.45
79016;DHT22;68420;44.714;37.756;2023-03-19T01:06:50;26.16;40.51
79016;DHT22;68420;44.714;37.756;2023-03-19T01:07:52;26.15;40.50
79016;DHT22;68420;44.714;37.756;2023-03-19T01:08:53;26.11;40.57
79016;DHT22;68420;44.714;37.756;2023-03-19T01:09:54;26.15;40.52
79016;DHT22;68420;44.714;37.756;2023-03-19T01:11:02;26.12;40.51
79016;DHT22;68420;44.714;37.756;2023-03-19T01:12:04;26.12;40.50
79016;DHT22;68420;44.714;37.756;2023-03-19T01:13:06;26.15;40.52
79016;DHT22;68420;44.714;37.756;2023-03-19T01:14:08;26.12;40.60
79016;DHT22;68420;44.714;37.756;2023-03-19T01:15:10;26.14;40.54
79016;DHT22;68420;44.714;37.756;2023-03-19T01:16:11;26.14;40.51
79016;DHT22;68420;44.714;37.756;2023-03-19T01:17:12;26.12;40.50
79016;DHT22;68420;44.714;37.756;2023-03-19T01:18:14;26.12;40.53
79016;DHT22;68420;44.714;37.756;2023-03-19T01:19:15;26.12;40.51
79016;DHT22;68420;44.714;37.756;2023-03-19T01:20:16;26.14;40.49
79016;DHT22;68420;44.714;37.756;2023-03-19T01:21:19;26.15;40.48
79016;DHT22;68420;44.714;37.756;2023-03-19T01:22:23;26.16;40.46
79016;DHT22;68420;44.714;37.756;2023-03-19T01:23:29;26.16;40.46
79016;DHT22;68420;44.714;37.756;2023-03-19T01:24:31;26.18;40.43
79016;DHT22;68420;44.714;37.756;2023-03-19T01:25:33;26.15;40.43
79016;DHT22;68420;44.714;37.756;2023-03-19T01:26:36;26.16;40.38
79016;DHT22;68420;44.714;37.756;2023-03-19T01:27:50;26.14;40.39
79016;DHT22;68420;44.714;37.756;2023-03-19T01:28:52;26.15;40.39
79016;DHT22;68420;44.714;37.756;2023-03-19T01:29:55;26.16;40.45
79016;DHT22;68420;44.714;37.756;2023-03-19T01:31:19;26.16;40.35
79016;DHT22;68420;44.714;37.756;2023-03-19T01:32:36;26.12;40.39
79016;DHT22;68420;44.714;37.756;2023-03-19T01:33:53;26.11;40.44
79016;DHT22;68420;44.714;37.756;2023-03-19T01:35:12;26.11;40.39
79016;DHT22;68420;44.714;37.756;2023-03-19T01:36:14;26.11;40.44
79016;DHT22;68420;44.714;37.756;2023-03-19T01:37:29;26.11;40.36
79016;DHT22;68420;44.714;37.756;2023-03-19T01:38:30;26.12;40.44
79016;DHT22;68420;44.714;37.756;2023-03-19T01:39:36;26.09;40.37
79016;DHT22;68420;44.714;37.756;2023-03-19T01:40:46;26.06;40.45
79016;DHT22;68420;44.714;37.756;2023-03-19T01:41:48;26.08;40.44
79016;DHT22;68420;44.714;37.756;2023-03-19T01:43:23;26.08;40.44
79016;DHT22;68420;44.714;37.756;2023-03-19T01:44:32;26.06;40.47
79016;DHT22;68420;44.714;37.756;2023-03-19T01:47:36;26.06;40.49
79016;DHT22;68420;44.714;37.756;2023-03-19T01:49:05;26.04;40.62
79016;DHT22;68420;44.714;37.756;2023-03-19T01:50:23;26.01;40.51
79016;DHT22;68420;44.714;37.756;2023-03-19T01:51:36;26.04;40.55
79016;DHT22;68420;44.714;37.756;2023-03-19T01:52:59;26.01;40.57
79016;DHT22;68420;44.714;37.756;2023-03-19T01:54:23;26.01;40.55
79016;DHT22;68420;44.714;37.756;2023-03-19T01:55:45;26.01;40.57
79016;DHT22;68420;44.714;37.756;2023-03-19T01:57:07;25.98;40.58
79016;DHT22;68420;44.714;37.756;2023-03-19T01:58:47;25.97;40.61
79016;DHT22;68420;44.714;37.756;2023-03-19T02:00:05;25.99;40.61
79016;DHT22;68420;44.714;37.756;2023-03-19T02:01:19;25.95;40.59
79016;DHT22;68420;44.714;37.756;2023-03-19T02:02:34;25.98;40.59
79016;DHT22;68420;44.714;37.756;2023-03-19T02:03:48;25.97;40.55
79016;DHT22;68420;44.714;37.756;2023-03-19T02:05:00;25.98;40.53
79016;DHT22;68420;44.714;37.756;2023-03-19T02:06:04;25.98;40.62
79016;DHT22;68420;44.714;37.756;2023-03-19T02:07:06;25.98;40.54
79016;DHT22;68420;44.714;37.756;2023-03-19T02:08:11;25.98;40.62
79016;DHT22;68420;44.714;37.756;2023-03-19T02:09:14;26.01;40.58
79016;DHT22;68420;44.714;37.756;2023-03-19T02:10:18;25.99;40.50
79016;DHT22;68420;44.714;37.756;2023-03-19T02:11:21;26.02;40.51
79016;DHT22;68420;44.714;37.756;2023-03-19T02:12:22;26.01;40.45
79016;DHT22;68420;44.714;37.756;2023-03-19T02:13:23;26.02;40.44
79016;DHT22;68420;44.714;37.756;2023-03-19T02:14:25;26.01;40.46
79016;DHT22;68420;44.714;37.756;2023-03-19T02:15:26;26.02;40.47
79016;DHT22;68420;44.714;37.756;2023-03-19T02:16:27;26.04;40.38
79016;DHT22;68420;44.714;37.756;2023-03-19T02:17:29;26.05;40.40
79016;DHT22;68420;44.714;37.756;2023-03-19T02:18:32;26.05;40.35
79016;DHT22;68420;44.714;37.756;2023-03-19T02:19:42;26.05;40.34
79016;DHT22;68420;44.714;37.756;2023-03-19T02:20:48;26.05;40.32
79016;DHT22;68420;44.714;37.756;2023-03-19T02:21:51;26.02;40.60
79016;DHT22;68420;44.714;37.756;2023-03-19T02:23:12;26.01;40.64
79016;DHT22;68420;44.714;37.756;2023-03-19T02:24:24;25.99;40.60
79016;DHT22;68420;44.714;37.756;2023-03-19T02:27:09;25.97;40.50
79016;DHT22;68420;44.714;37.756;2023-03-19T02:28:16;25.95;40.45
79016;DHT22;68420;44.714;37.756;2023-03-19T02:29:18;25.98;40.45
79016;DHT22;68420;44.714;37.756;2023-03-19T02:30:27;25.97;40.45
79016;DHT22;68420;44.714;37.756;2023-03-19T02:31:33;25.95;40.43
79016;DHT22;68420;44.714;37.756;2023-03-19T02:32:34;25.95;40.43
79016;DHT22;68420;44.714;37.756;2023-03-19T02:33:35;25.95;40.45
79016;DHT22;68420;44.714;37.756;2023-03-19T02:34:39;25.97;40.42
79016;DHT22;68420;44.714;37.756;2023-03-19T02:35:41;25.98;40.38
79016;DHT22;68420;44.714;37.756;2023-03-19T02:36:48;25.98;40.38
79016;DHT22;68420;44.714;37.756;2023-03-19T02:37:51;25.98;40.45
79016;DHT22;68420;44.714;37.756;2023-03-19T02:38:53;25.97;40.38
79016;DHT22;68420;44.714;37.756;2023-03-19T02:40:05;25.98;40.33
79016;DHT22;68420;44.714;37.756;2023-03-19T02:41:09;26.01;40.37
79016;DHT22;68420;44.714;37.756;2023-03-19T02:42:10;25.99;40.32
79016;DHT22;68420;44.714;37.756;2023-03-19T02:43:13;25.99;40.34
79016;DHT22;68420;44.714;37.756;2023-03-19T02:44:14;26.02;40.26
79016;DHT22;68420;44.714;37.756;2023-03-19T02:45:19;26.04;40.29
79016;DHT22;68420;44.714;37.756;2023-03-19T02:46:21;26.04;40.24
79016;DHT22;68420;44.714;37.756;2023-03-19T02:47:23;26.05;40.24
79016;DHT22;68420;44.714;37.756;2023-03-19T02:48:25;26.05;40.30
79016;DHT22;68420;44.714;37.756;2023-03-19T02:49:26;26.04;40.21
79016;DHT22;68420;44.714;37.756;2023-03-19T02:50:28;26.04;40.22
79016;DHT22;68420;44.714;37.756;2023-03-19T02:51:29;26.05;40.25
79016;DHT22;68420;44.714;37.756;2023-03-19T02:52:31;26.05;40.21
79016;DHT22;68420;44.714;37.756;2023-03-19T02:53:32;26.06;40.14
79016;DHT22;68420;44.714;37.756;2023-03-19T02:54:34;26.06;40.14
79016;DHT22;68420;44.714;37.756;2023-03-19T02:55:36;26.08;40.14
79016;DHT22;68420;44.714;37.756;2023-03-19T02:56:37;26.08;40.16
79016;DHT22;68420;44.714;37.756;2023-03-19T02:57:39;26.06;40.12
79016;DHT22;68420;44.714;37.756;2023-03-19T02:58:40;26.05;40.17
79016;DHT22;68420;44.714;37.756;2023-03-19T02:59:42;26.08;40.16
79016;DHT22;68420;44.714;37.756;2023-03-19T03:00:44;26.09;40.11
79016;DHT22;68420;44.714;37.756;2023-03-19T03:01:46;26.08;40.15
79016;DHT22;68420;44.714;37.756;2023-03-19T03:02:47;26.11;40.11
79016;DHT22;68420;44.714;37.756;2023-03-19T03:03:49;26.08;40.10
79016;DHT22;68420;44.714;37.756;2023-03-19T03:04:50;26.09;40.10
79016;DHT22;68420;44.714;37.756;2023-03-19T03:05:51;26.11;40.12
79016;DHT22;68420;44.714;37.756;2023-03-19T03:06:53;26.09;40.10
79016;DHT22;68420;44.714;37.756;2023-03-19T03:07:54;26.11;40.14
79016;DHT22;68420;44.714;37.756;2023-03-19T03:08:55;26.09;40.14
79016;DHT22;68420;44.714;37.756;2023-03-19T03:09:57;26.08;40.11
79016;DHT22;68420;44.714;37.756;2023-03-19T03:10:58;26.12;40.13
79016;DHT22;68420;44.714;37.756;2023-03-19T03:12:00;26.09;40.07
79016;DHT22;68420;44.714;37.756;2023-03-19T03:13:01;26.09;40.07
79016;DHT22;68420;44.714;37.756;2023-03-19T03:14:03;26.11;40.07
79016;DHT22;68420;44.714;37.756;2023-03-19T03:15:07;26.11;40.06
79016;DHT22;68420;44.714;37.756;2023-03-19T03:16:09;26.11;40.03
79016;DHT22;68420;44.714;37.756;2023-03-19T03:17:10;26.11;40.02
79016;DHT22;68420;44.714;37.756;2023-03-19T03:18:11;26.08;40.08
79016;DHT22;68420;44.714;37.756;2023-03-19T03:19:13;26.11;40.11
79016;DHT22;68420;44.714;37.756;2023-03-19T03:20:16;26.08;40.12
79016;DHT22;68420;44.714;37.756;2023-03-19T03:21:19;26.09;40.08
79016;DHT22;68420;44.714;37.756;2023-03-19T03:22:21;26.09;40.07
79016;DHT22;68420;44.714;37.756;2023-03-19T03:23:23;26.06;40.14
79016;DHT22;68420;44.714;37.756;2023-03-19T03:24:24;26.06;40.16
79016;DHT22;68420;44.714;37.756;2023-03-19T03:25:25;26.08;40.09
79016;DHT22;68420;44.714;37.756;2023-03-19T03:26:26;26.08;40.04
79016;DHT22;68420;44.714;37.756;2023-03-19T03:27:28;26.06;40.12
79016;DHT22;68420;44.714;37.756;2023-03-19T03:28:29;26.06;40.09
79016;DHT22;68420;44.714;37.756;2023-03-19T03:29:31;26.05;40.10
79016;DHT22;68420;44.714;37.756;2023-03-19T03:30:32;26.05;40.08
79016;DHT22;68420;44.714;37.756;2023-03-19T03:31:34;26.06;40.17
79016;DHT22;68420;44.714;37.756;2023-03-19T03:32:36;26.06;40.10
79016;DHT22;68420;44.714;37.756;2023-03-19T03:33:38;26.05;40.09
79016;DHT22;68420;44.714;37.756;2023-03-19T03:34:39;26.08;40.06
79016;DHT22;68420;44.714;37.756;2023-03-19T03:35:40;26.08;40.09
79016;DHT22;68420;44.714;37.756;2023-03-19T03:36:42;26.09;40.05
79016;DHT22;68420;44.714;37.756;2023-03-19T03:37:43;26.05;40.12
79016;DHT22;68420;44.714;37.756;2023-03-19T03:38:44;26.06;40.08
79016;DHT22;68420;44.714;37.756;2023-03-19T03:39:46;26.05;40.12
79016;DHT22;68420;44.714;37.756;2023-03-19T03:40:51;26.05;40.08
79016;DHT22;68420;44.714;37.756;2023-03-19T03:41:54;26.08;40.11
79016;DHT22;68420;44.714;37.756;2023-03-19T03:42:55;26.06;40.09
79016;DHT22;68420;44.714;37.756;2023-03-19T03:43:57;26.06;40.08
79016;DHT22;68420;44.714;37.756;2023-03-19T03:44:58;26.08;40.04
79016;DHT22;68420;44.714;37.756;2023-03-19T03:46:00;26.06;40.06
79016;DHT22;68420;44.714;37.756;2023-03-19T03:47:01;26.08;39.98
79016;DHT22;68420;44.714;37.756;2023-03-19T03:48:03;26.09;39.98
79016;DHT22;68420;44.714;37.756;2023-03-19T03:49:05;26.08;40.03
79016;DHT22;68420;44.714;37.756;2023-03-19T03:50:07;26.08;40.01
79016;DHT22;68420;44.714;37.756;2023-03-19T03:51:11;26.09;40.03
79016;DHT22;68420;44.714;37.756;2023-03-19T03:52:13;26.05;40.03
79016;DHT22;68420;44.714;37.756;2023-03-19T03:53:14;26.04;39.96
79016;DHT22;68420;44.714;37.756;2023-03-19T03:54:15;26.06;40.04
79016;DHT22;68420;44.714;37.756;2023-03-19T03:55:17;26.08;40.10
79016;DHT22;68420;44.714;37.756;2023-03-19T03:56:18;26.04;40.00
79016;DHT22;68420;44.714;37.756;2023-03-19T03:57:20;26.05;40.00
79016;DHT22;68420;44.714;37.756;2023-03-19T03:58:21;26.06;39.94
79016;DHT22;68420;44.714;37.756;2023-03-19T03:59:24;26.06;40.02
79016;DHT22;68420;44.714;37.756;2023-03-19T04:00:26;26.06;39.99
79016;DHT22;68420;44.714;37.756;2023-03-19T04:01:27;26.06;40.04
79016;DHT22;68420;44.714;37.756;2023-03-19T04:02:30;26.06;39.99
79016;DHT22;68420;44.714;37.756;2023-03-19T04:03:31;26.06;39.94
79016;DHT22;68420;44.714;37.756;2023-03-19T04:04:32;26.05;40.52
79016;DHT22;68420;44.714;37.756;2023-03-19T04:05:34;26.02;40.50
79016;DHT22;68420;44.714;37.756;2023-03-19T04:06:36;26.01;41.52
79016;DHT22;68420;44.714;37.756;2023-03-19T04:08:02;25.94;42.28
79016;DHT22;68420;44.714;37.756;2023-03-19T04:09:04;25.92;42.36
79016;DHT22;68420;44.714;37.756;2023-03-19T04:10:09;25.89;42.56
79016;DHT22;68420;44.714;37.756;2023-03-19T04:11:10;25.85;42.80
79016;DHT22;68420;44.714;37.756;2023-03-19T04:12:12;25.84;42.82
79016;DHT22;68420;44.714;37.756;2023-03-19T04:13:16;25.81;42.81
79016;DHT22;68420;44.714;37.756;2023-03-19T04:14:17;25.81;42.89
79016;DHT22;68420;44.714;37.756;2023-03-19T04:15:19;25.81;42.92
79016;DHT22;68420;44.714;37.756;2023-03-19T04:16:23;25.81;42.86
79016;DHT22;68420;44.714;37.756;2023-03-19T04:17:24;25.80;42.86
79016;DHT22;68420;44.714;37.756;2023-03-19T04:18:25;25.80;42.76
79016;DHT22;68420;44.714;37.756;2023-03-19T04:19:27;25.80;42.77
79016;DHT22;68420;44.714;37.756;2023-03-19T04:20:28;25.81;42.70
79016;DHT22;68420;44.714;37.756;2023-03-19T04:21:30;25.81;42.55
79016;DHT22;68420;44.714;37.756;2023-03-19T04:22:31;25.80;42.55
79016;DHT22;68420;44.714;37.756;2023-03-19T04:23:34;25.82;42.48
79016;DHT22;68420;44.714;37.756;2023-03-19T04:24:35;25.82;42.40
79016;DHT22;68420;44.714;37.756;2023-03-19T04:25:40;25.81;42.37
79016;DHT22;68420;44.714;37.756;2023-03-19T04:26:41;25.82;42.31
79016;DHT22;68420;44.714;37.756;2023-03-19T04:27:43;25.84;42.17
79016;DHT22;68420;44.714;37.756;2023-03-19T04:28:44;25.84;42.22
79016;DHT22;68420;44.714;37.756;2023-03-19T04:29:46;25.85;42.10
79016;DHT22;68420;44.714;37.756;2023-03-19T04:30:48;25.84;42.08
79016;DHT22;68420;44.714;37.756;2023-03-19T04:31:49;25.85;42.14
79016;DHT22;68420;44.714;37.756;2023-03-19T04:32:51;25.85;42.00
79016;DHT22;68420;44.714;37.756;2023-03-19T04:33:52;25.84;41.97
79016;DHT22;68420;44.714;37.756;2023-03-19T04:34:54;25.84;42.03
79016;DHT22;68420;44.714;37.756;2023-03-19T04:35:56;25.84;42.01
79016;DHT22;68420;44.714;37.756;2023-03-19T04:36:57;25.84;42.01
79016;DHT22;68420;44.714;37.756;2023-03-19T04:37:59;25.82;42.00
79016;DHT22;68420;44.714;37.756;2023-03-19T04:39:00;25.80;42.00
79016;DHT22;68420;44.714;37.756;2023-03-19T04:40:02;25.82;42.10
79016;DHT22;68420;44.714;37.756;2023-03-19T04:41:07;25.80;42.12
79016;DHT22;68420;44.714;37.756;2023-03-19T04:42:11;25.81;42.06
79016;DHT22;68420;44.714;37.756;2023-03-19T04:43:24;25.78;42.07
79016;DHT22;68420;44.714;37.756;2023-03-19T04:44:26;25.78;41.95
79016;DHT22;68420;44.714;37.756;2023-03-19T04:45:28;25.81;41.96
79016;DHT22;68420;44.714;37.756;2023-03-19T04:46:29;25.81;42.02
79016;DHT22;68420;44.714;37.756;2023-03-19T04:47:31;25.80;41.98
79016;DHT22;68420;44.714;37.756;2023-03-19T04:48:34;25.80;42.01
79016;DHT22;68420;44.714;37.756;2023-03-19T04:49:35;25.80;42.01
79016;DHT22;68420;44.714;37.756;2023-03-19T04:50:37;25.84;42.07
79016;DHT22;68420;44.714;37.756;2023-03-19T04:51:40;25.81;42.19
79016;DHT22;68420;44.714;37.756;2023-03-19T04:52:42;25.78;42.43
79016;DHT22;68420;44.714;37.756;2023-03-19T04:53:46;25.75;42.48
79016;DHT22;68420;44.714;37.756;2023-03-19T04:54:48;25.75;42.68
79016;DHT22;68420;44.714;37.756;2023-03-19T04:55:49;25.73;42.70
79016;DHT22;68420;44.714;37.756;2023-03-19T04:56:53;25.70;42.70
79016;DHT22;68420;44.714;37.756;2023-03-19T04:57:57;25.68;42.73
79016;DHT22;68420;44.714;37.756;2023-03-19T04:59:02;25.66;42.87
79016;DHT22;68420;44.714;37.756;2023-03-19T05:00:04;25.66;42.91
79016;DHT22;68420;44.714;37.756;2023-03-19T05:01:08;25.61;42.91
79016;DHT22;68420;44.714;37.756;2023-03-19T05:02:29;25.60;42.95
79016;DHT22;68420;44.714;37.756;2023-03-19T05:03:31;25.59;42.96
79016;DHT22;68420;44.714;37.756;2023-03-19T05:04:32;25.60;42.95
79016;DHT22;68420;44.714;37.756;2023-03-19T05:05:39;25.63;42.94
79016;DHT22;68420;44.714;37.756;2023-03-19T05:06:42;25.61;42.86
79016;DHT22;68420;44.714;37.756;2023-03-19T05:07:43;25.64;42.84
79016;DHT22;68420;44.714;37.756;2023-03-19T05:08:45;25.66;42.83
79016;DHT22;68420;44.714;37.756;2023-03-19T05:09:48;25.66;42.82
79016;DHT22;68420;44.714;37.756;2023-03-19T05:10:50;25.66;42.86
79016;DHT22;68420;44.714;37.756;2023-03-19T05:11:52;25.67;42.73
79016;DHT22;68420;44.714;37.756;2023-03-19T05:12:55;25.67;42.78
79016;DHT22;68420;44.714;37.756;2023-03-19T05:13:57;25.67;42.76
79016;DHT22;68420;44.714;37.756;2023-03-19T05:14:58;25.70;42.77
79016;DHT22;68420;44.714;37.756;2023-03-19T05:16:06;25.66;42.79
79016;DHT22;68420;44.714;37.756;2023-03-19T05:17:09;25.67;42.82
79016;DHT22;68420;44.714;37.756;2023-03-19T05:18:27;25.66;42.88
79016;DHT22;68420;44.714;37.756;2023-03-19T05:19:29;25.68;42.80
79016;DHT22;68420;44.714;37.756;2023-03-19T05:20:30;25.66;42.85
79016;DHT22;68420;44.714;37.756;2023-03-19T05:21:38;25.68;42.82
79016;DHT22;68420;44.714;37.756;2023-03-19T05:22:40;25.67;42.80
79016;DHT22;68420;44.714;37.756;2023-03-19T05:23:42;25.70;42.86
79016;DHT22;68420;44.714;37.756;2023-03-19T05:24:44;25.68;42.80
79016;DHT22;68420;44.714;37.756;2023-03-19T05:25:46;25.70;42.78
79016;DHT22;68420;44.714;37.756;2023-03-19T05:26:53;25.68;42.83
79016;DHT22;68420;44.714;37.756;2023-03-19T05:28:03;25.68;42.84
79016;DHT22;68420;44.714;37.756;2023-03-19T05:29:05;25.68;42.85
79016;DHT22;68420;44.714;37.756;2023-03-19T05:30:18;25.68;42.78
79016;DHT22;68420;44.714;37.756;2023-03-19T05:31:26;25.70;42.77
79016;DHT22;68420;44.714;37.756;2023-03-19T05:32:28;25.70;42.75
79016;DHT22;68420;44.714;37.756;2023-03-19T05:33:30;25.73;42.75
79016;DHT22;68420;44.714;37.756;2023-03-19T05:34:32;25.74;42.75
79016;DHT22;68420;44.714;37.756;2023-03-19T05:35:37;25.73;42.68
79016;DHT22;68420;44.714;37.756;2023-03-19T05:36:44;25.74;42.70
79016;DHT22;68420;44.714;37.756;2023-03-19T05:37:50;25.74;42.73
79016;DHT22;68420;44.714;37.756;2023-03-19T05:38:51;25.75;42.73
79016;DHT22;68420;44.714;37.756;2023-03-19T05:39:59;25.71;42.70
79016;DHT22;68420;44.714;37.756;2023-03-19T05:41:05;25.71;42.79
79016;DHT22;68420;44.714;37.756;2023-03-19T05:42:23;25.73;42.70
79016;DHT22;68420;44.714;37.756;2023-03-19T05:43:24;25.73;42.71
79016;DHT22;68420;44.714;37.756;2023-03-19T05:44:26;25.75;42.66
79016;DHT22;68420;44.714;37.756;2023-03-19T05:45:36;25.74;42.68
79016;DHT22;68420;44.714;37.756;2023-03-19T05:46:47;25.75;42.65
79016;DHT22;68420;44.714;37.756;2023-03-19T05:47:49;25.77;42.63
79016;DHT22;68420;44.714;37.756;2023-03-19T05:48:51;25.77;42.63
79016;DHT22;68420;44.714;37.756;2023-03-19T05:49:53;25.80;42.59
79016;DHT22;68420;44.714;37.756;2023-03-19T05:50:54;25.82;42.39
79016;DHT22;68420;44.714;37.756;2023-03-19T05:51:57;25.88;42.29
79016;DHT22;68420;44.714;37.756;2023-03-19T05:52:58;25.88;42.17
79016;DHT22;68420;44.714;37.756;2023-03-19T05:53:59;25.89;42.12
79016;DHT22;68420;44.714;37.756;2023-03-19T05:55:26;25.89;42.00
79016;DHT22;68420;44.714;37.756;2023-03-19T05:56:40;25.92;41.89
79016;DHT22;68420;44.714;37.756;2023-03-19T05:58:05;25.91;41.75
79016;DHT22;68420;44.714;37.756;2023-03-19T05:59:08;25.91;41.75
79016;DHT22;68420;44.714;37.756;2023-03-19T06:00:14;25.91;41.71
79016;DHT22;68420;44.714;37.756;2023-03-19T06:01:15;25.91;41.69
79016;DHT22;68420;44.714;37.756;2023-03-19T06:02:19;25.94;41.49
79016;DHT22;68420;44.714;37.756;2023-03-19T06:03:21;25.97;41.49
79016;DHT22;68420;44.714;37.756;2023-03-19T06:04:24;25.94;41.41
79016;DHT22;68420;44.714;37.756;2023-03-19T06:05:26;25.97;41.26
79016;DHT22;68420;44.714;37.756;2023-03-19T06:06:33;25.97;41.18
79016;DHT22;68420;44.714;37.756;2023-03-19T06:07:35;25.95;41.24
79016;DHT22;68420;44.714;37.756;2023-03-19T06:08:42;25.95;41.29
79016;DHT22;68420;44.714;37.756;2023-03-19T06:10:02;25.95;41.43
79016;DHT22;68420;44.714;37.756;2023-03-19T06:11:04;25.94;41.44
79016;DHT22;68420;44.714;37.756;2023-03-19T06:12:08;25.94;41.35
79016;DHT22;68420;44.714;37.756;2023-03-19T06:13:27;25.91;41.35
79016;DHT22;68420;44.714;37.756;2023-03-19T06:14:40;25.94;40.99
79016;DHT22;68420;44.714;37.756;2023-03-19T06:16:13;25.98;40.60
79016;DHT22;68420;44.714;37.756;2023-03-19T06:17:21;26.04;40.44
79016;DHT22;68420;44.714;37.756;2023-03-19T06:18:23;26.04;40.46
79016;DHT22;68420;44.714;37.756;2023-03-19T06:19:24;26.04;40.30
79016;DHT22;68420;44.714;37.756;2023-03-19T06:20:26;26.08;40.26
79016;DHT22;68420;44.714;37.756;2023-03-19T06:21:27;26.05;40.21
79016;DHT22;68420;44.714;37.756;2023-03-19T06:22:32;26.08;40.10
79016;DHT22;68420;44.714;37.756;2023-03-19T06:23:36;26.09;40.06
79016;DHT22;68420;44.714;37.756;2023-03-19T06:24:39;26.08;39.99
79016;DHT22;68420;44.714;37.756;2023-03-19T06:25:41;26.11;40.02
79016;DHT22;68420;44.714;37.756;2023-03-19T06:26:43;26.09;39.98
79016;DHT22;68420;44.714;37.756;2023-03-19T06:27:49;26.12;39.89
79016;DHT22;68420;44.714;37.756;2023-03-19T06:29:00;26.09;39.88
79016;DHT22;68420;44.714;37.756;2023-03-19T06:30:01;26.12;39.79
79016;DHT22;68420;44.714;37.756;2023-03-19T06:31:06;26.12;39.77
79016;DHT22;68420;44.714;37.756;2023-03-19T06:32:26;26.11;39.77
79016;DHT22;68420;44.714;37.756;2023-03-19T06:33:28;26.09;39.81
79016;DHT22;68420;44.714;37.756;2023-03-19T06:34:32;26.06;39.75
79016;DHT22;68420;44.714;37.756;2023-03-19T06:35:35;26.08;39.69
79016;DHT22;68420;44.714;37.756;2023-03-19T06:36:37;26.08;39.72
79016;DHT22;68420;44.714;37.756;2023-03-19T06:37:38;26.08;39.68
79016;DHT22;68420;44.714;37.756;2023-03-19T06:38:39;26.08;39.67
79016;DHT22;68420;44.714;37.756;2023-03-19T06:39:41;26.08;39.63
79016;DHT22;68420;44.714;37.756;2023-03-19T06:40:42;26.08;39.59
79016;DHT22;68420;44.714;37.756;2023-03-19T06:41:43;26.06;39.60
79016;DHT22;68420;44.714;37.756;2023-03-19T06:42:50;26.11;39.55